• Join FlightAware (Why Join?)
  • Login
  • US Flag 
06:41PM EDT


 

Airport Tracker/Info


-or-


 

Live Flight TrackerFlight Track Log ✈ RPA4937 ✈ 26-Aug-2013 ✈ KHDN - KDEN

Flight Track Log - Related Links

Times and Time Zones

All times are in EDT time to prevent confusion due to time zone crossing. See the RPA4937 flight status page for this flight to view local times or setup timezone preferences in your user account.

Time Position Orientation Groundspeed Altitude Reporting Facility
EDT Latitude Longitude Course Direction KTS MPH feet Rate Location/Type
08:33AM 40.4867 -107.2294 90° East 23 26 6,500  Level Denver Center
08:34AM 40.4875 -107.2342 283° West 15 17 6,500 120 Level Denver Center
08:35AM 40.4772 -107.2086 118° Southeast 69 79 6,800 1,380 Climbing Denver Center
08:36AM 40.4650 -107.1433 104° East 148 170 9,400 2,220 Climbing Denver Center
08:37AM 40.5167 -106.7523 90° East  Level FlightAware Approximate
08:37AM 40.4778 -107.0667 78° East 213 245 11,400  Level Denver Center
08:38AM 40.5167 -106.6416 90° East  Level FlightAware Approximate
08:38AM 40.4867 -106.9783 82° East 233 268 13,500  Level Denver Center
08:39AM 40.5167 -106.5310 90° East  Level FlightAware Approximate
08:39AM 40.4942 -106.8892 84° East 241 277 15,300  Level Denver Center
08:40AM 40.5028 -106.7906 83° East 268 308 15,900 240 Climbing Denver Center
08:41AM 40.5133 -106.6672 84° East 329 379 15,900  Level Denver Center
08:42AM 40.5247 -106.5347 84° East 359 413 15,900 -60 Level Denver Center
08:43AM 40.5231 -106.4253 91° East 369 425 15,800 120 Descending Denver Center
08:44AM 40.5222 -106.2578 90° East 377 434 16,200 1,080 Climbing Denver Center
08:45AM 40.5231 -106.1339 89° East 345 397 18,000 1,320 Climbing Denver Center
08:46AM 40.5214 -106.0225 91° East 312 359 19,000 480 Climbing Denver Center
08:47AM 40.5197 -105.9036 91° East 321 369 19,000 -360 Level Denver Center
08:48AM 40.5186 -105.7761 91° East 342 394 18,300 -780 Descending Denver Center
08:49AM 40.5108 -105.6319 94° East 337 388 17,300 -840 Descending Denver Center
08:50AM 40.4575 -105.5514 131° Southeast 295 339 16,600 -660 Descending Denver Center
08:51AM 40.4342 -105.4153 103° East 336 387 16,000 -780 Descending Denver Center
08:52AM 40.4119 -105.2981 104° East 333 383 15,100 -1,080 Descending Denver Center
08:53AM 40.3894 -105.1764 104° East 321 369 13,900 -1,080 Descending Denver Center
08:54AM 40.3706 -105.0819 105° East 274 315 13,000 -720 Descending Denver Center
08:55AM 40.3419 -104.9956 113° Southeast 267 307 12,500 -840 Descending Denver Center
08:56AM 40.3011 -104.9181 125° Southeast 258 297 11,300 -1,320 Descending Denver Center
08:57AM 40.2542 -104.8367 127° Southeast 262 302 9,900 -1,080 Descending Denver Center
08:58AM 40.1886 -104.8011 157° South 254 292 9,200 -660 Descending Denver Center
08:59AM 40.1258 -104.7656 157° South 248 285 8,600 -600 Descending Denver Center
09:00AM 40.0625 -104.7297 157° South 248 285 8,000 -780 Descending Denver Center
09:01AM 40.0003 -104.6992 159° South 235 270 7,100 -900 Descending Denver Center
09:03AM 39.9444 -104.6953 177° South 189 217 6,200 -840 Descending Denver Center
09:04AM 39.9061 -104.6956 180° South 143 165 5,500 -480 Descending Denver Center
09:05AM 39.8792 -104.6961 181° South 117 135 5,300 -240 Descending Denver Center
09:07AM 39.8617 -104.6732 165° South  Level Estimated
09:14AM 39.8617 -104.6732 339° North  Level Estimated